sensor_id;sensor_type;location;lat;lon;timestamp;P1;durP1;ratioP1;P2;durP2;ratioP2
76865;SDS011;66647;52.124;5.416;2023-04-24T00:01:05;1.05;;;0.10;;
76865;SDS011;66647;52.124;5.416;2023-04-24T00:03:34;0.45;;;0.10;;
76865;SDS011;66647;52.124;5.416;2023-04-24T00:06:01;1.52;;;0.10;;
76865;SDS011;66647;52.124;5.416;2023-04-24T00:08:30;0.50;;;0.10;;
76865;SDS011;66647;52.124;5.416;2023-04-24T00:10:57;0.50;;;0.10;;
76865;SDS011;66647;52.124;5.416;2023-04-24T00:13:25;0.77;;;0.22;;
76865;SDS011;66647;52.124;5.416;2023-04-24T00:15:54;1.80;;;0.13;;
76865;SDS011;66647;52.124;5.416;2023-04-24T00:18:22;0.90;;;0.10;;
76865;SDS011;66647;52.124;5.416;2023-04-24T00:20:51;1.20;;;0.10;;
76865;SDS011;66647;52.124;5.416;2023-04-24T00:23:18;1.80;;;0.10;;
76865;SDS011;66647;52.124;5.416;2023-04-24T00:25:46;1.30;;;0.52;;
76865;SDS011;66647;52.124;5.416;2023-04-24T00:28:16;1.70;;;0.20;;
76865;SDS011;66647;52.124;5.416;2023-04-24T00:30:42;1.20;;;0.20;;
76865;SDS011;66647;52.124;5.416;2023-04-24T00:33:09;1.35;;;0.20;;
76865;SDS011;66647;52.124;5.416;2023-04-24T00:35:36;1.15;;;0.30;;
76865;SDS011;66647;52.124;5.416;2023-04-24T00:38:04;1.17;;;0.10;;
76865;SDS011;66647;52.124;5.416;2023-04-24T00:40:33;0.93;;;0.13;;
76865;SDS011;66647;52.124;5.416;2023-04-24T00:42:59;2.00;;;0.20;;
76865;SDS011;66647;52.124;5.416;2023-04-24T00:45:26;2.05;;;0.38;;
76865;SDS011;66647;52.124;5.416;2023-04-24T00:47:53;0.95;;;0.13;;
76865;SDS011;66647;52.124;5.416;2023-04-24T00:50:20;1.20;;;0.20;;
76865;SDS011;66647;52.124;5.416;2023-04-24T00:52:47;1.23;;;0.10;;
76865;SDS011;66647;52.124;5.416;2023-04-24T00:55:14;2.25;;;0.30;;
76865;SDS011;66647;52.124;5.416;2023-04-24T00:57:42;4.82;;;1.42;;
76865;SDS011;66647;52.124;5.416;2023-04-24T01:00:10;1.73;;;0.47;;
76865;SDS011;66647;52.124;5.416;2023-04-24T01:02:41;2.20;;;0.30;;
76865;SDS011;66647;52.124;5.416;2023-04-24T01:05:16;1.70;;;0.30;;
76865;SDS011;66647;52.124;5.416;2023-04-24T01:07:43;4.05;;;0.40;;
76865;SDS011;66647;52.124;5.416;2023-04-24T01:10:13;1.67;;;0.50;;
76865;SDS011;66647;52.124;5.416;2023-04-24T01:12:40;2.17;;;0.40;;
76865;SDS011;66647;52.124;5.416;2023-04-24T01:15:07;3.47;;;0.30;;
76865;SDS011;66647;52.124;5.416;2023-04-24T01:17:34;3.22;;;0.35;;
76865;SDS011;66647;52.124;5.416;2023-04-24T01:20:01;3.38;;;0.70;;
76865;SDS011;66647;52.124;5.416;2023-04-24T01:24:59;2.30;;;0.28;;
76865;SDS011;66647;52.124;5.416;2023-04-24T01:27:29;2.22;;;0.32;;
76865;SDS011;66647;52.124;5.416;2023-04-24T01:29:56;3.17;;;0.40;;
76865;SDS011;66647;52.124;5.416;2023-04-24T01:32:23;2.78;;;0.88;;
76865;SDS011;66647;52.124;5.416;2023-04-24T01:34:50;2.70;;;0.77;;
76865;SDS011;66647;52.124;5.416;2023-04-24T01:37:17;3.95;;;0.75;;
76865;SDS011;66647;52.124;5.416;2023-04-24T01:39:45;2.65;;;0.68;;
76865;SDS011;66647;52.124;5.416;2023-04-24T01:42:17;2.88;;;0.52;;
76865;SDS011;66647;52.124;5.416;2023-04-24T01:44:45;2.78;;;0.57;;
76865;SDS011;66647;52.124;5.416;2023-04-24T01:47:13;2.70;;;0.82;;
76865;SDS011;66647;52.124;5.416;2023-04-24T01:49:39;2.70;;;0.93;;
76865;SDS011;66647;52.124;5.416;2023-04-24T01:52:08;4.13;;;1.20;;
76865;SDS011;66647;52.124;5.416;2023-04-24T01:54:36;3.50;;;0.75;;
76865;SDS011;66647;52.124;5.416;2023-04-24T01:57:04;4.50;;;1.23;;
76865;SDS011;66647;52.124;5.416;2023-04-24T01:59:31;3.60;;;1.42;;
76865;SDS011;66647;52.124;5.416;2023-04-24T02:01:59;3.13;;;0.80;;
76865;SDS011;66647;52.124;5.416;2023-04-24T02:04:26;3.10;;;0.80;;
76865;SDS011;66647;52.124;5.416;2023-04-24T02:06:52;2.95;;;0.73;;
76865;SDS011;66647;52.124;5.416;2023-04-24T02:09:19;6.32;;;1.08;;
76865;SDS011;66647;52.124;5.416;2023-04-24T02:11:45;3.17;;;1.27;;
76865;SDS011;66647;52.124;5.416;2023-04-24T02:14:12;4.15;;;1.10;;
76865;SDS011;66647;52.124;5.416;2023-04-24T02:16:39;2.70;;;0.60;;
76865;SDS011;66647;52.124;5.416;2023-04-24T02:19:06;3.85;;;0.70;;
76865;SDS011;66647;52.124;5.416;2023-04-24T02:21:32;3.20;;;0.63;;
76865;SDS011;66647;52.124;5.416;2023-04-24T02:24:00;3.40;;;0.60;;
76865;SDS011;66647;52.124;5.416;2023-04-24T02:26:27;2.08;;;0.45;;
76865;SDS011;66647;52.124;5.416;2023-04-24T02:28:53;2.78;;;0.60;;
76865;SDS011;66647;52.124;5.416;2023-04-24T02:31:20;2.75;;;0.60;;
76865;SDS011;66647;52.124;5.416;2023-04-24T02:33:47;3.45;;;0.70;;
76865;SDS011;66647;52.124;5.416;2023-04-24T02:36:14;2.60;;;0.98;;
76865;SDS011;66647;52.124;5.416;2023-04-24T02:38:40;2.58;;;0.52;;
76865;SDS011;66647;52.124;5.416;2023-04-24T02:41:07;4.70;;;0.68;;
76865;SDS011;66647;52.124;5.416;2023-04-24T02:43:33;2.10;;;0.55;;
76865;SDS011;66647;52.124;5.416;2023-04-24T02:46:00;2.80;;;0.80;;
76865;SDS011;66647;52.124;5.416;2023-04-24T02:48:26;4.32;;;0.82;;
76865;SDS011;66647;52.124;5.416;2023-04-24T02:50:53;4.65;;;1.55;;
76865;SDS011;66647;52.124;5.416;2023-04-24T02:53:20;2.97;;;0.82;;
76865;SDS011;66647;52.124;5.416;2023-04-24T02:55:46;3.60;;;0.82;;
76865;SDS011;66647;52.124;5.416;2023-04-24T02:58:13;2.83;;;1.10;;
76865;SDS011;66647;52.124;5.416;2023-04-24T03:00:39;2.70;;;0.77;;
76865;SDS011;66647;52.124;5.416;2023-04-24T03:03:06;4.18;;;1.13;;
76865;SDS011;66647;52.124;5.416;2023-04-24T03:05:33;2.60;;;0.60;;
76865;SDS011;66647;52.124;5.416;2023-04-24T03:08:00;5.55;;;0.73;;
76865;SDS011;66647;52.124;5.416;2023-04-24T03:10:26;3.58;;;1.17;;
76865;SDS011;66647;52.124;5.416;2023-04-24T03:12:53;3.30;;;0.65;;
76865;SDS011;66647;52.124;5.416;2023-04-24T03:15:21;5.30;;;1.38;;
76865;SDS011;66647;52.124;5.416;2023-04-24T03:17:48;3.92;;;1.17;;
76865;SDS011;66647;52.124;5.416;2023-04-24T03:20:14;3.20;;;1.45;;
76865;SDS011;66647;52.124;5.416;2023-04-24T03:22:42;2.65;;;0.52;;
76865;SDS011;66647;52.124;5.416;2023-04-24T03:25:08;3.17;;;0.57;;
76865;SDS011;66647;52.124;5.416;2023-04-24T03:27:36;3.65;;;0.80;;
76865;SDS011;66647;52.124;5.416;2023-04-24T03:30:16;3.25;;;0.73;;
76865;SDS011;66647;52.124;5.416;2023-04-24T03:32:51;2.45;;;0.40;;
76865;SDS011;66647;52.124;5.416;2023-04-24T03:35:22;2.63;;;0.50;;
76865;SDS011;66647;52.124;5.416;2023-04-24T03:37:49;2.80;;;0.95;;
76865;SDS011;66647;52.124;5.416;2023-04-24T03:40:38;2.78;;;0.40;;
76865;SDS011;66647;52.124;5.416;2023-04-24T03:43:17;3.33;;;0.95;;
76865;SDS011;66647;52.124;5.416;2023-04-24T03:45:45;3.45;;;1.05;;
76865;SDS011;66647;52.124;5.416;2023-04-24T03:48:14;3.20;;;1.13;;
76865;SDS011;66647;52.124;5.416;2023-04-24T03:50:41;3.85;;;0.70;;
76865;SDS011;66647;52.124;5.416;2023-04-24T03:53:10;2.97;;;0.65;;
76865;SDS011;66647;52.124;5.416;2023-04-24T03:55:39;3.42;;;0.80;;
76865;SDS011;66647;52.124;5.416;2023-04-24T03:58:05;3.85;;;0.80;;
76865;SDS011;66647;52.124;5.416;2023-04-24T04:00:32;3.38;;;0.95;;
76865;SDS011;66647;52.124;5.416;2023-04-24T04:03:22;3.30;;;0.63;;
76865;SDS011;66647;52.124;5.416;2023-04-24T04:05:49;3.08;;;0.80;;
76865;SDS011;66647;52.124;5.416;2023-04-24T04:08:15;4.03;;;0.68;;
76865;SDS011;66647;52.124;5.416;2023-04-24T04:10:42;2.40;;;0.57;;
76865;SDS011;66647;52.124;5.416;2023-04-24T04:13:09;3.28;;;0.65;;
76865;SDS011;66647;52.124;5.416;2023-04-24T04:15:36;3.70;;;0.93;;
76865;SDS011;66647;52.124;5.416;2023-04-24T04:18:02;3.63;;;1.08;;
76865;SDS011;66647;52.124;5.416;2023-04-24T04:20:31;4.43;;;0.55;;
76865;SDS011;66647;52.124;5.416;2023-04-24T04:22:57;3.60;;;0.75;;
76865;SDS011;66647;52.124;5.416;2023-04-24T04:25:39;3.80;;;0.68;;
76865;SDS011;66647;52.124;5.416;2023-04-24T04:28:06;4.32;;;0.88;;
76865;SDS011;66647;52.124;5.416;2023-04-24T04:30:39;4.50;;;1.25;;
76865;SDS011;66647;52.124;5.416;2023-04-24T04:33:09;3.45;;;0.85;;
76865;SDS011;66647;52.124;5.416;2023-04-24T04:35:36;4.75;;;1.00;;
76865;SDS011;66647;52.124;5.416;2023-04-24T04:38:03;5.30;;;1.58;;
76865;SDS011;66647;52.124;5.416;2023-04-24T04:40:53;7.30;;;3.60;;
76865;SDS011;66647;52.124;5.416;2023-04-24T04:43:21;7.28;;;3.13;;
76865;SDS011;66647;52.124;5.416;2023-04-24T04:45:51;4.93;;;2.13;;
76865;SDS011;66647;52.124;5.416;2023-04-24T04:48:41;5.68;;;3.22;;
76865;SDS011;66647;52.124;5.416;2023-04-24T04:51:08;7.10;;;1.92;;
76865;SDS011;66647;52.124;5.416;2023-04-24T04:53:35;4.80;;;1.33;;
76865;SDS011;66647;52.124;5.416;2023-04-24T04:56:02;4.32;;;1.38;;
76865;SDS011;66647;52.124;5.416;2023-04-24T04:58:36;4.60;;;1.10;;
76865;SDS011;66647;52.124;5.416;2023-04-24T05:01:04;5.43;;;1.30;;
76865;SDS011;66647;52.124;5.416;2023-04-24T05:03:36;3.53;;;0.95;;
76865;SDS011;66647;52.124;5.416;2023-04-24T05:06:07;5.03;;;1.25;;
76865;SDS011;66647;52.124;5.416;2023-04-24T05:08:36;3.60;;;0.85;;
76865;SDS011;66647;52.124;5.416;2023-04-24T05:11:06;3.83;;;1.10;;
76865;SDS011;66647;52.124;5.416;2023-04-24T05:13:32;5.30;;;1.55;;
76865;SDS011;66647;52.124;5.416;2023-04-24T05:16:26;3.72;;;0.77;;
76865;SDS011;66647;52.124;5.416;2023-04-24T05:18:54;3.63;;;0.77;;
76865;SDS011;66647;52.124;5.416;2023-04-24T05:21:26;4.80;;;1.08;;
76865;SDS011;66647;52.124;5.416;2023-04-24T05:23:53;4.53;;;0.90;;
76865;SDS011;66647;52.124;5.416;2023-04-24T05:26:41;3.67;;;0.82;;
76865;SDS011;66647;52.124;5.416;2023-04-24T05:29:08;4.40;;;0.77;;
76865;SDS011;66647;52.124;5.416;2023-04-24T05:31:35;3.92;;;0.95;;
76865;SDS011;66647;52.124;5.416;2023-04-24T05:34:04;5.57;;;0.93;;
76865;SDS011;66647;52.124;5.416;2023-04-24T05:36:32;3.78;;;0.90;;
76865;SDS011;66647;52.124;5.416;2023-04-24T05:38:58;3.05;;;0.43;;
76865;SDS011;66647;52.124;5.416;2023-04-24T05:41:25;3.17;;;0.47;;
76865;SDS011;66647;52.124;5.416;2023-04-24T05:43:52;4.85;;;0.80;;
76865;SDS011;66647;52.124;5.416;2023-04-24T05:46:19;4.18;;;0.80;;
76865;SDS011;66647;52.124;5.416;2023-04-24T05:48:46;3.72;;;0.60;;
76865;SDS011;66647;52.124;5.416;2023-04-24T05:51:14;3.25;;;0.45;;
76865;SDS011;66647;52.124;5.416;2023-04-24T05:53:41;4.03;;;0.80;;
76865;SDS011;66647;52.124;5.416;2023-04-24T05:56:08;4.28;;;0.80;;
76865;SDS011;66647;52.124;5.416;2023-04-24T05:58:35;2.58;;;0.47;;
76865;SDS011;66647;52.124;5.416;2023-04-24T06:01:04;4.20;;;0.70;;
76865;SDS011;66647;52.124;5.416;2023-04-24T06:03:31;4.32;;;0.77;;
76865;SDS011;66647;52.124;5.416;2023-04-24T06:06:01;2.35;;;0.30;;
76865;SDS011;66647;52.124;5.416;2023-04-24T06:08:28;3.80;;;0.50;;
76865;SDS011;66647;52.124;5.416;2023-04-24T06:10:55;2.60;;;0.52;;
76865;SDS011;66647;52.124;5.416;2023-04-24T06:13:22;5.18;;;0.25;;
76865;SDS011;66647;52.124;5.416;2023-04-24T06:16:09;2.10;;;0.20;;
76865;SDS011;66647;52.124;5.416;2023-04-24T06:18:38;3.85;;;0.20;;
76865;SDS011;66647;52.124;5.416;2023-04-24T06:21:05;2.42;;;0.20;;
76865;SDS011;66647;52.124;5.416;2023-04-24T06:23:32;1.70;;;0.32;;
76865;SDS011;66647;52.124;5.416;2023-04-24T06:25:59;1.73;;;0.10;;
76865;SDS011;66647;52.124;5.416;2023-04-24T06:28:26;1.98;;;0.10;;
76865;SDS011;66647;52.124;5.416;2023-04-24T06:30:52;0.68;;;0.00;;
76865;SDS011;66647;52.124;5.416;2023-04-24T06:33:19;2.20;;;0.10;;
76865;SDS011;66647;52.124;5.416;2023-04-24T06:35:48;1.45;;;0.40;;
76865;SDS011;66647;52.124;5.416;2023-04-24T06:38:14;0.80;;;0.10;;
76865;SDS011;66647;52.124;5.416;2023-04-24T06:40:42;0.80;;;0.00;;
76865;SDS011;66647;52.124;5.416;2023-04-24T06:43:14;0.90;;;0.20;;
76865;SDS011;66647;52.124;5.416;2023-04-24T06:45:44;1.67;;;0.20;;
76865;SDS011;66647;52.124;5.416;2023-04-24T06:48:11;3.58;;;0.40;;
76865;SDS011;66647;52.124;5.416;2023-04-24T06:50:38;3.70;;;1.00;;
76865;SDS011;66647;52.124;5.416;2023-04-24T06:53:04;5.25;;;1.52;;
76865;SDS011;66647;52.124;5.416;2023-04-24T06:55:31;6.38;;;1.73;;
76865;SDS011;66647;52.124;5.416;2023-04-24T06:57:59;8.25;;;1.92;;
76865;SDS011;66647;52.124;5.416;2023-04-24T07:00:26;8.93;;;2.50;;
76865;SDS011;66647;52.124;5.416;2023-04-24T07:03:00;8.40;;;3.03;;
76865;SDS011;66647;52.124;5.416;2023-04-24T07:05:27;9.57;;;2.70;;
76865;SDS011;66647;52.124;5.416;2023-04-24T07:07:54;7.45;;;2.53;;
76865;SDS011;66647;52.124;5.416;2023-04-24T07:10:20;6.70;;;2.88;;
76865;SDS011;66647;52.124;5.416;2023-04-24T07:12:47;7.57;;;2.42;;
76865;SDS011;66647;52.124;5.416;2023-04-24T07:15:14;7.13;;;2.58;;
76865;SDS011;66647;52.124;5.416;2023-04-24T07:17:40;9.20;;;2.13;;
76865;SDS011;66647;52.124;5.416;2023-04-24T07:22:50;8.75;;;3.13;;
76865;SDS011;66647;52.124;5.416;2023-04-24T07:25:20;9.48;;;3.22;;
76865;SDS011;66647;52.124;5.416;2023-04-24T07:27:46;13.68;;;2.80;;
76865;SDS011;66647;52.124;5.416;2023-04-24T07:30:14;6.10;;;2.33;;
76865;SDS011;66647;52.124;5.416;2023-04-24T07:32:41;9.20;;;3.13;;
76865;SDS011;66647;52.124;5.416;2023-04-24T07:35:08;9.77;;;2.95;;
76865;SDS011;66647;52.124;5.416;2023-04-24T07:37:36;8.60;;;2.50;;
76865;SDS011;66647;52.124;5.416;2023-04-24T07:40:02;11.20;;;3.08;;
76865;SDS011;66647;52.124;5.416;2023-04-24T07:42:30;6.95;;;2.10;;
76865;SDS011;66647;52.124;5.416;2023-04-24T07:45:00;8.45;;;2.38;;
76865;SDS011;66647;52.124;5.416;2023-04-24T07:47:27;12.38;;;2.97;;
76865;SDS011;66647;52.124;5.416;2023-04-24T07:49:53;7.45;;;2.85;;
76865;SDS011;66647;52.124;5.416;2023-04-24T07:52:20;10.68;;;2.50;;
76865;SDS011;66647;52.124;5.416;2023-04-24T07:54:46;9.52;;;2.97;;
76865;SDS011;66647;52.124;5.416;2023-04-24T07:57:16;11.52;;;2.35;;
76865;SDS011;66647;52.124;5.416;2023-04-24T07:59:42;8.20;;;1.83;;
76865;SDS011;66647;52.124;5.416;2023-04-24T08:02:09;8.75;;;2.33;;
76865;SDS011;66647;52.124;5.416;2023-04-24T08:04:39;8.95;;;2.17;;
76865;SDS011;66647;52.124;5.416;2023-04-24T08:07:06;7.43;;;2.40;;
76865;SDS011;66647;52.124;5.416;2023-04-24T08:09:55;7.30;;;2.40;;
76865;SDS011;66647;52.124;5.416;2023-04-24T08:12:22;8.60;;;1.80;;
76865;SDS011;66647;52.124;5.416;2023-04-24T08:14:50;8.27;;;2.33;;
76865;SDS011;66647;52.124;5.416;2023-04-24T08:17:17;9.63;;;1.88;;
76865;SDS011;66647;52.124;5.416;2023-04-24T08:19:43;6.00;;;1.52;;
76865;SDS011;66647;52.124;5.416;2023-04-24T08:22:14;9.38;;;1.67;;
76865;SDS011;66647;52.124;5.416;2023-04-24T08:24:44;6.10;;;1.42;;
76865;SDS011;66647;52.124;5.416;2023-04-24T08:27:10;6.25;;;0.95;;
76865;SDS011;66647;52.124;5.416;2023-04-24T08:29:38;4.03;;;0.40;;
76865;SDS011;66647;52.124;5.416;2023-04-24T08:32:22;3.70;;;0.30;;
76865;SDS011;66647;52.124;5.416;2023-04-24T08:34:48;7.22;;;0.45;;
76865;SDS011;66647;52.124;5.416;2023-04-24T08:37:16;6.95;;;0.32;;
76865;SDS011;66647;52.124;5.416;2023-04-24T08:39:43;6.65;;;0.47;;
76865;SDS011;66647;52.124;5.416;2023-04-24T08:42:09;6.55;;;0.60;;
76865;SDS011;66647;52.124;5.416;2023-04-24T08:44:38;3.33;;;0.40;;
76865;SDS011;66647;52.124;5.416;2023-04-24T08:47:04;5.28;;;0.77;;
76865;SDS011;66647;52.124;5.416;2023-04-24T08:49:31;13.10;;;0.68;;
76865;SDS011;66647;52.124;5.416;2023-04-24T08:51:59;5.95;;;0.43;;
76865;SDS011;66647;52.124;5.416;2023-04-24T08:54:28;10.25;;;0.40;;
76865;SDS011;66647;52.124;5.416;2023-04-24T08:56:57;12.20;;;1.85;;
76865;SDS011;66647;52.124;5.416;2023-04-24T08:59:33;6.53;;;0.98;;
76865;SDS011;66647;52.124;5.416;2023-04-24T09:02:04;7.72;;;0.93;;
76865;SDS011;66647;52.124;5.416;2023-04-24T09:04:31;6.18;;;0.40;;
76865;SDS011;66647;52.124;5.416;2023-04-24T09:07:00;9.43;;;0.68;;
76865;SDS011;66647;52.124;5.416;2023-04-24T09:09:30;2.85;;;0.20;;
76865;SDS011;66647;52.124;5.416;2023-04-24T09:11:59;5.53;;;0.30;;
76865;SDS011;66647;52.124;5.416;2023-04-24T09:14:26;8.48;;;0.30;;
76865;SDS011;66647;52.124;5.416;2023-04-24T09:16:54;6.60;;;0.20;;
76865;SDS011;66647;52.124;5.416;2023-04-24T09:19:20;6.03;;;0.40;;
76865;SDS011;66647;52.124;5.416;2023-04-24T09:21:48;9.48;;;0.30;;
76865;SDS011;66647;52.124;5.416;2023-04-24T09:24:17;6.60;;;0.20;;
76865;SDS011;66647;52.124;5.416;2023-04-24T09:26:47;5.38;;;0.20;;
76865;SDS011;66647;52.124;5.416;2023-04-24T09:29:16;12.20;;;0.63;;
76865;SDS011;66647;52.124;5.416;2023-04-24T09:31:44;8.75;;;0.70;;
76865;SDS011;66647;52.124;5.416;2023-04-24T09:34:12;9.43;;;1.38;;
76865;SDS011;66647;52.124;5.416;2023-04-24T09:36:39;4.45;;;0.30;;
76865;SDS011;66647;52.124;5.416;2023-04-24T09:39:09;7.10;;;0.28;;
76865;SDS011;66647;52.124;5.416;2023-04-24T09:41:56;9.90;;;0.38;;
76865;SDS011;66647;52.124;5.416;2023-04-24T09:44:25;9.38;;;0.55;;
76865;SDS011;66647;52.124;5.416;2023-04-24T09:46:54;7.85;;;0.50;;
76865;SDS011;66647;52.124;5.416;2023-04-24T09:49:22;5.30;;;0.20;;
76865;SDS011;66647;52.124;5.416;2023-04-24T09:52:06;6.15;;;0.30;;
76865;SDS011;66647;52.124;5.416;2023-04-24T09:54:35;6.57;;;0.20;;
76865;SDS011;66647;52.124;5.416;2023-04-24T09:57:03;2.33;;;0.20;;
76865;SDS011;66647;52.124;5.416;2023-04-24T09:59:30;5.70;;;0.20;;
76865;SDS011;66647;52.124;5.416;2023-04-24T10:01:57;5.43;;;0.55;;
76865;SDS011;66647;52.124;5.416;2023-04-24T10:04:26;5.90;;;0.40;;
76865;SDS011;66647;52.124;5.416;2023-04-24T10:06:54;4.82;;;0.35;;
76865;SDS011;66647;52.124;5.416;2023-04-24T10:09:23;4.70;;;0.30;;
76865;SDS011;66647;52.124;5.416;2023-04-24T10:11:52;5.95;;;0.20;;
76865;SDS011;66647;52.124;5.416;2023-04-24T10:14:21;2.88;;;0.40;;
76865;SDS011;66647;52.124;5.416;2023-04-24T10:17:01;3.00;;;0.30;;
76865;SDS011;66647;52.124;5.416;2023-04-24T10:19:29;3.72;;;0.22;;
76865;SDS011;66647;52.124;5.416;2023-04-24T10:22:03;4.40;;;0.30;;
76865;SDS011;66647;52.124;5.416;2023-04-24T10:24:33;5.35;;;0.20;;
76865;SDS011;66647;52.124;5.416;2023-04-24T10:27:01;7.70;;;0.85;;
76865;SDS011;66647;52.124;5.416;2023-04-24T10:29:29;5.40;;;0.20;;
76865;SDS011;66647;52.124;5.416;2023-04-24T10:31:57;8.48;;;0.47;;
76865;SDS011;66647;52.124;5.416;2023-04-24T10:34:24;2.70;;;0.30;;
76865;SDS011;66647;52.124;5.416;2023-04-24T10:36:52;3.20;;;0.20;;
76865;SDS011;66647;52.124;5.416;2023-04-24T10:39:23;4.32;;;0.10;;
76865;SDS011;66647;52.124;5.416;2023-04-24T10:41:53;1.70;;;0.10;;
76865;SDS011;66647;52.124;5.416;2023-04-24T10:44:20;1.45;;;0.00;;
76865;SDS011;66647;52.124;5.416;2023-04-24T10:46:52;2.97;;;0.00;;
76865;SDS011;66647;52.124;5.416;2023-04-24T10:49:29;1.42;;;0.03;;
76865;SDS011;66647;52.124;5.416;2023-04-24T10:52:00;1.10;;;0.00;;
76865;SDS011;66647;52.124;5.416;2023-04-24T10:54:29;4.35;;;0.10;;
76865;SDS011;66647;52.124;5.416;2023-04-24T10:59:46;3.90;;;0.10;;
76865;SDS011;66647;52.124;5.416;2023-04-24T11:02:14;0.60;;;0.00;;
76865;SDS011;66647;52.124;5.416;2023-04-24T11:04:41;1.50;;;0.10;;
76865;SDS011;66647;52.124;5.416;2023-04-24T11:07:09;2.53;;;0.10;;
76865;SDS011;66647;52.124;5.416;2023-04-24T11:09:37;2.97;;;0.10;;
76865;SDS011;66647;52.124;5.416;2023-04-24T11:12:07;3.53;;;0.00;;
76865;SDS011;66647;52.124;5.416;2023-04-24T11:17:32;3.22;;;0.10;;
76865;SDS011;66647;52.124;5.416;2023-04-24T11:20:07;2.00;;;0.00;;
76865;SDS011;66647;52.124;5.416;2023-04-24T11:22:53;3.15;;;0.10;;
76865;SDS011;66647;52.124;5.416;2023-04-24T11:25:21;3.40;;;0.10;;
76865;SDS011;66647;52.124;5.416;2023-04-24T11:28:02;2.88;;;0.25;;
76865;SDS011;66647;52.124;5.416;2023-04-24T11:30:30;3.00;;;0.20;;
76865;SDS011;66647;52.124;5.416;2023-04-24T11:33:01;1.90;;;0.10;;
76865;SDS011;66647;52.124;5.416;2023-04-24T11:35:29;3.53;;;0.10;;
76865;SDS011;66647;52.124;5.416;2023-04-24T11:38:02;5.90;;;0.10;;
76865;SDS011;66647;52.124;5.416;2023-04-24T11:40:49;2.22;;;0.10;;
76865;SDS011;66647;52.124;5.416;2023-04-24T11:43:16;2.10;;;0.03;;
76865;SDS011;66647;52.124;5.416;2023-04-24T11:45:48;1.63;;;0.08;;
76865;SDS011;66647;52.124;5.416;2023-04-24T11:48:19;2.95;;;0.10;;
76865;SDS011;66647;52.124;5.416;2023-04-24T11:50:49;2.10;;;0.20;;
76865;SDS011;66647;52.124;5.416;2023-04-24T11:53:18;1.23;;;0.00;;
76865;SDS011;66647;52.124;5.416;2023-04-24T11:55:48;1.02;;;0.00;;
76865;SDS011;66647;52.124;5.416;2023-04-24T11:58:15;0.60;;;0.00;;
76865;SDS011;66647;52.124;5.416;2023-04-24T12:00:54;2.05;;;0.00;;
76865;SDS011;66647;52.124;5.416;2023-04-24T12:03:25;2.78;;;0.03;;
76865;SDS011;66647;52.124;5.416;2023-04-24T12:05:52;1.77;;;0.10;;
76865;SDS011;66647;52.124;5.416;2023-04-24T12:08:28;3.30;;;0.10;;
76865;SDS011;66647;52.124;5.416;2023-04-24T12:10:55;1.05;;;0.00;;
76865;SDS011;66647;52.124;5.416;2023-04-24T12:13:21;1.05;;;0.00;;
76865;SDS011;66647;52.124;5.416;2023-04-24T12:15:50;1.63;;;0.00;;
76865;SDS011;66647;52.124;5.416;2023-04-24T12:18:24;2.63;;;0.00;;
76865;SDS011;66647;52.124;5.416;2023-04-24T12:20:52;0.38;;;0.00;;
76865;SDS011;66647;52.124;5.416;2023-04-24T12:23:34;2.10;;;0.00;;
76865;SDS011;66647;52.124;5.416;2023-04-24T12:26:04;5.07;;;0.10;;
76865;SDS011;66647;52.124;5.416;2023-04-24T12:28:35;4.65;;;0.10;;
76865;SDS011;66647;52.124;5.416;2023-04-24T12:31:03;4.10;;;0.10;;
76865;SDS011;66647;52.124;5.416;2023-04-24T12:33:33;3.17;;;0.10;;
76865;SDS011;66647;52.124;5.416;2023-04-24T12:36:01;3.78;;;0.10;;
76865;SDS011;66647;52.124;5.416;2023-04-24T12:38:28;3.33;;;0.03;;
76865;SDS011;66647;52.124;5.416;2023-04-24T12:41:07;4.28;;;0.10;;
76865;SDS011;66647;52.124;5.416;2023-04-24T12:43:35;2.95;;;0.10;;
76865;SDS011;66647;52.124;5.416;2023-04-24T12:46:03;5.97;;;0.30;;
76865;SDS011;66647;52.124;5.416;2023-04-24T12:48:30;3.53;;;0.28;;
76865;SDS011;66647;52.124;5.416;2023-04-24T12:50:57;2.58;;;0.10;;
76865;SDS011;66647;52.124;5.416;2023-04-24T12:53:27;3.75;;;0.40;;
76865;SDS011;66647;52.124;5.416;2023-04-24T12:55:55;4.20;;;0.20;;
76865;SDS011;66647;52.124;5.416;2023-04-24T12:58:22;6.88;;;0.25;;
76865;SDS011;66647;52.124;5.416;2023-04-24T13:00:49;6.15;;;0.17;;
76865;SDS011;66647;52.124;5.416;2023-04-24T13:03:16;4.75;;;0.15;;
76865;SDS011;66647;52.124;5.416;2023-04-24T13:05:43;4.45;;;0.10;;
76865;SDS011;66647;52.124;5.416;2023-04-24T13:08:10;3.25;;;0.13;;
76865;SDS011;66647;52.124;5.416;2023-04-24T13:10:39;6.57;;;0.20;;
76865;SDS011;66647;52.124;5.416;2023-04-24T13:13:06;7.78;;;0.10;;
76865;SDS011;66647;52.124;5.416;2023-04-24T13:15:33;8.80;;;0.17;;
76865;SDS011;66647;52.124;5.416;2023-04-24T13:17:59;4.68;;;0.17;;
76865;SDS011;66647;52.124;5.416;2023-04-24T13:20:26;5.88;;;0.20;;
76865;SDS011;66647;52.124;5.416;2023-04-24T13:22:53;6.13;;;0.32;;
76865;SDS011;66647;52.124;5.416;2023-04-24T13:25:21;4.95;;;0.40;;
76865;SDS011;66647;52.124;5.416;2023-04-24T13:27:49;5.70;;;0.32;;
76865;SDS011;66647;52.124;5.416;2023-04-24T13:30:16;11.25;;;0.50;;
76865;SDS011;66647;52.124;5.416;2023-04-24T13:32:43;7.05;;;0.43;;
76865;SDS011;66647;52.124;5.416;2023-04-24T13:35:10;4.45;;;0.10;;
76865;SDS011;66647;52.124;5.416;2023-04-24T13:37:36;7.13;;;0.30;;
76865;SDS011;66647;52.124;5.416;2023-04-24T13:40:03;6.93;;;0.30;;
76865;SDS011;66647;52.124;5.416;2023-04-24T13:42:32;3.95;;;0.28;;
76865;SDS011;66647;52.124;5.416;2023-04-24T13:44:59;8.90;;;0.43;;
76865;SDS011;66647;52.124;5.416;2023-04-24T13:47:42;8.43;;;0.70;;
76865;SDS011;66647;52.124;5.416;2023-04-24T13:50:19;8.93;;;0.45;;
76865;SDS011;66647;52.124;5.416;2023-04-24T13:52:46;4.57;;;0.30;;
76865;SDS011;66647;52.124;5.416;2023-04-24T13:55:13;7.60;;;0.30;;
76865;SDS011;66647;52.124;5.416;2023-04-24T13:57:40;5.53;;;0.40;;
76865;SDS011;66647;52.124;5.416;2023-04-24T14:00:09;7.53;;;0.30;;
76865;SDS011;66647;52.124;5.416;2023-04-24T14:02:45;5.22;;;0.35;;
76865;SDS011;66647;52.124;5.416;2023-04-24T14:08:15;7.65;;;0.40;;
76865;SDS011;66647;52.124;5.416;2023-04-24T14:10:42;3.72;;;0.13;;
76865;SDS011;66647;52.124;5.416;2023-04-24T14:13:08;6.93;;;0.10;;
76865;SDS011;66647;52.124;5.416;2023-04-24T14:15:35;5.68;;;0.25;;
76865;SDS011;66647;52.124;5.416;2023-04-24T14:18:02;4.38;;;0.47;;
76865;SDS011;66647;52.124;5.416;2023-04-24T14:20:31;6.15;;;0.22;;
76865;SDS011;66647;52.124;5.416;2023-04-24T14:22:58;6.63;;;0.40;;
76865;SDS011;66647;52.124;5.416;2023-04-24T14:25:25;5.57;;;0.10;;
76865;SDS011;66647;52.124;5.416;2023-04-24T14:27:52;7.47;;;0.93;;
76865;SDS011;66647;52.124;5.416;2023-04-24T14:30:19;7.60;;;0.30;;
76865;SDS011;66647;52.124;5.416;2023-04-24T14:32:46;3.63;;;0.20;;
76865;SDS011;66647;52.124;5.416;2023-04-24T14:35:13;5.50;;;0.35;;
76865;SDS011;66647;52.124;5.416;2023-04-24T14:37:40;7.22;;;0.30;;
76865;SDS011;66647;52.124;5.416;2023-04-24T14:40:10;5.90;;;0.28;;
76865;SDS011;66647;52.124;5.416;2023-04-24T14:42:57;7.80;;;0.60;;
76865;SDS011;66647;52.124;5.416;2023-04-24T14:45:24;4.78;;;0.30;;
76865;SDS011;66647;52.124;5.416;2023-04-24T14:47:52;6.15;;;0.47;;
76865;SDS011;66647;52.124;5.416;2023-04-24T14:50:19;5.75;;;0.52;;
76865;SDS011;66647;52.124;5.416;2023-04-24T14:52:49;7.47;;;0.50;;
76865;SDS011;66647;52.124;5.416;2023-04-24T14:55:16;6.38;;;0.28;;
76865;SDS011;66647;52.124;5.416;2023-04-24T14:57:42;5.50;;;0.32;;
76865;SDS011;66647;52.124;5.416;2023-04-24T15:00:09;8.50;;;0.45;;
76865;SDS011;66647;52.124;5.416;2023-04-24T15:02:36;7.85;;;0.40;;
76865;SDS011;66647;52.124;5.416;2023-04-24T15:05:06;5.45;;;0.30;;
76865;SDS011;66647;52.124;5.416;2023-04-24T15:07:34;7.70;;;0.30;;
76865;SDS011;66647;52.124;5.416;2023-04-24T15:10:02;11.38;;;0.75;;
76865;SDS011;66647;52.124;5.416;2023-04-24T15:12:29;5.15;;;0.40;;